createdAt,value
2018-01-18T00:00:34.760Z,997.29
2018-01-18T00:01:34.747Z,997.33
2018-01-18T00:02:34.733Z,997.36
2018-01-18T00:03:34.720Z,997.29
2018-01-18T00:04:34.718Z,997.31
2018-01-18T00:05:34.697Z,997.33
2018-01-18T00:06:34.684Z,997.29
2018-01-18T00:07:34.669Z,997.32
2018-01-18T00:08:34.655Z,997.26
2018-01-18T00:09:34.645Z,997.27
2018-01-18T00:10:34.629Z,997.18
2018-01-18T00:11:34.619Z,997.24
2018-01-18T00:12:34.606Z,997.25
2018-01-18T00:13:34.592Z,997.26
2018-01-18T00:14:34.580Z,997.21
2018-01-18T00:15:34.568Z,997.21
2018-01-18T00:16:34.551Z,997.18
2018-01-18T00:17:34.558Z,997.17
2018-01-18T00:18:34.551Z,997.14
2018-01-18T00:19:34.518Z,997.10
2018-01-18T00:20:34.522Z,997.09
2018-01-18T00:21:34.531Z,997.06
2018-01-18T00:22:34.487Z,997.03
2018-01-18T00:23:34.498Z,996.99
2018-01-18T00:24:34.463Z,997.02
2018-01-18T00:25:34.440Z,996.99
2018-01-18T00:26:34.429Z,996.93
2018-01-18T00:27:34.414Z,996.96
2018-01-18T00:28:34.398Z,996.95
2018-01-18T00:29:34.391Z,996.86
2018-01-18T00:30:34.373Z,996.97
2018-01-18T00:31:34.364Z,996.94
2018-01-18T00:32:34.354Z,996.96
2018-01-18T00:33:34.339Z,996.96
2018-01-18T00:34:34.324Z,996.89
2018-01-18T00:35:34.317Z,996.84
2018-01-18T00:36:34.306Z,996.84
2018-01-18T00:37:34.289Z,996.78
2018-01-18T00:38:34.278Z,996.85
2018-01-18T00:39:34.263Z,996.79
2018-01-18T00:40:34.252Z,996.77
2018-01-18T00:41:34.238Z,996.72
2018-01-18T00:42:34.226Z,996.70
2018-01-18T00:43:34.225Z,996.65
2018-01-18T00:44:34.202Z,996.65
2018-01-18T00:45:34.232Z,996.59
2018-01-18T00:46:34.219Z,996.53
2018-01-18T00:47:34.166Z,996.50
2018-01-18T00:48:34.206Z,996.46
2018-01-18T00:49:34.158Z,996.48
2018-01-18T00:50:34.119Z,996.43
2018-01-18T00:51:34.135Z,996.46
2018-01-18T00:52:34.122Z,996.39
2018-01-18T00:53:34.085Z,996.38
2018-01-18T00:54:34.076Z,996.40
2018-01-18T00:55:34.078Z,996.38
2018-01-18T00:56:34.045Z,996.35
2018-01-18T00:57:34.034Z,996.37
2018-01-18T00:58:34.057Z,996.42
2018-01-18T00:59:34.036Z,996.34
2018-01-18T01:00:34.028Z,996.29
2018-01-18T01:01:33.984Z,996.08
2018-01-18T01:02:34.012Z,996.29
2018-01-18T01:03:33.993Z,996.24
2018-01-18T01:04:34.004Z,996.21
2018-01-18T01:05:33.949Z,996.23
2018-01-18T01:06:33.928Z,996.17
2018-01-18T01:07:33.975Z,996.16
2018-01-18T01:08:33.960Z,996.16
2018-01-18T01:09:33.899Z,996.09
2018-01-18T01:10:33.895Z,996.11
2018-01-18T01:11:33.865Z,996.11
2018-01-18T01:12:33.858Z,996.11
2018-01-18T01:13:33.891Z,996.14
2018-01-18T01:14:33.832Z,996.06
2018-01-18T01:15:33.855Z,996.11
2018-01-18T01:16:33.835Z,996.06
2018-01-18T01:17:33.776Z,995.98
2018-01-18T01:18:33.876Z,995.94
2018-01-18T01:19:33.769Z,995.90
2018-01-18T01:20:33.757Z,995.72
2018-01-18T01:21:33.732Z,995.76
2018-01-18T01:22:33.719Z,995.80
2018-01-18T01:23:33.705Z,995.86
2018-01-18T01:24:33.704Z,995.82
2018-01-18T01:25:33.684Z,995.81
2018-01-18T01:26:33.670Z,995.77
2018-01-18T01:27:33.657Z,995.68
2018-01-18T01:28:33.644Z,995.70
2018-01-18T01:29:33.631Z,995.66
2018-01-18T01:30:33.635Z,995.60
2018-01-18T01:31:33.605Z,995.55
2018-01-18T01:32:33.591Z,995.58
2018-01-18T01:33:33.580Z,995.56
2018-01-18T01:34:33.568Z,995.55
2018-01-18T01:35:33.574Z,995.58
2018-01-18T01:36:33.544Z,995.55
2018-01-18T01:37:33.550Z,995.36
2018-01-18T01:38:33.518Z,995.33
2018-01-18T01:39:33.504Z,995.35
2018-01-18T01:40:33.493Z,995.30
2018-01-18T01:41:33.482Z,995.29
2018-01-18T01:42:33.468Z,995.30
2018-01-18T01:43:33.456Z,995.34
2018-01-18T01:44:33.441Z,995.24
2018-01-18T01:45:33.434Z,995.19
2018-01-18T01:46:33.420Z,995.19
2018-01-18T01:47:33.408Z,995.24
2018-01-18T01:48:33.394Z,995.16
2018-01-18T01:49:33.394Z,995.09
2018-01-18T01:50:33.380Z,995.19
2018-01-18T01:51:33.354Z,995.25
2018-01-18T01:52:33.341Z,995.26
2018-01-18T01:53:33.349Z,995.24
2018-01-18T01:54:33.325Z,995.16
2018-01-18T01:55:33.314Z,995.21
2018-01-18T01:56:33.295Z,995.14
2018-01-18T01:57:33.284Z,995.02
2018-01-18T01:58:33.276Z,995.07
2018-01-18T01:59:33.255Z,995.03
2018-01-18T02:00:33.243Z,994.95
2018-01-18T02:01:33.240Z,994.91
2018-01-18T02:02:33.221Z,994.79
2018-01-18T02:03:33.207Z,994.83
2018-01-18T02:04:33.197Z,994.79
2018-01-18T02:05:33.182Z,994.71
2018-01-18T02:06:33.186Z,994.70
2018-01-18T02:07:33.159Z,994.72
2018-01-18T02:08:33.147Z,994.75
2018-01-18T02:09:33.142Z,994.76
2018-01-18T02:10:33.121Z,994.69
2018-01-18T02:11:33.108Z,994.65
2018-01-18T02:12:33.095Z,994.62
2018-01-18T02:13:33.084Z,994.63
2018-01-18T02:14:33.074Z,994.65
2018-01-18T02:15:33.059Z,994.54
2018-01-18T02:16:33.047Z,994.59
2018-01-18T02:17:33.034Z,994.53
2018-01-18T02:18:33.022Z,994.51
2018-01-18T02:19:33.007Z,994.50
2018-01-18T02:20:33.018Z,994.38
2018-01-18T02:21:33.006Z,994.42
2018-01-18T02:22:32.972Z,994.33
2018-01-18T02:23:32.961Z,994.27
2018-01-18T02:24:32.943Z,994.26
2018-01-18T02:25:32.938Z,994.26
2018-01-18T02:26:32.924Z,994.23
2018-01-18T02:27:32.916Z,994.15
2018-01-18T02:28:32.895Z,994.06
2018-01-18T02:29:32.890Z,994.03
2018-01-18T02:30:32.876Z,993.99
2018-01-18T02:31:32.861Z,993.97
2018-01-18T02:32:32.851Z,993.96
2018-01-18T02:33:32.840Z,993.94
2018-01-18T02:34:32.822Z,993.90
2018-01-18T02:35:32.810Z,993.82
2018-01-18T02:36:32.798Z,993.80
2018-01-18T02:37:32.789Z,993.80
2018-01-18T02:38:32.775Z,993.74
2018-01-18T02:39:32.764Z,993.67
2018-01-18T02:40:32.751Z,993.65
2018-01-18T02:41:32.738Z,993.67
2018-01-18T02:42:32.726Z,993.66
2018-01-18T02:43:32.716Z,993.68
2018-01-18T02:44:32.701Z,993.59
2018-01-18T02:45:32.690Z,993.55
2018-01-18T02:46:32.680Z,993.51
2018-01-18T02:47:32.667Z,993.53
2018-01-18T02:48:32.657Z,993.43
2018-01-18T02:49:32.654Z,993.43
2018-01-18T02:50:32.632Z,993.40
2018-01-18T02:51:32.609Z,993.31
2018-01-18T02:52:32.598Z,993.27
2018-01-18T02:53:32.594Z,993.27
2018-01-18T02:54:32.584Z,993.25
2018-01-18T02:55:32.563Z,993.23
2018-01-18T02:56:32.567Z,993.24
2018-01-18T02:57:32.542Z,993.15
2018-01-18T02:58:32.540Z,993.24
2018-01-18T02:59:32.520Z,993.20
2018-01-18T03:00:32.546Z,993.24
2018-01-18T03:01:32.527Z,993.13
2018-01-18T03:02:32.479Z,993.10
2018-01-18T03:03:32.476Z,993.14
2018-01-18T03:04:32.470Z,993.15
2018-01-18T03:05:32.445Z,993.13
2018-01-18T03:06:32.437Z,993.13
2018-01-18T03:07:32.420Z,993.15
2018-01-18T03:08:32.402Z,993.16
2018-01-18T03:09:32.418Z,993.10
2018-01-18T03:10:32.383Z,993.02
2018-01-18T03:11:32.373Z,992.96
2018-01-18T03:12:32.364Z,992.97
2018-01-18T03:13:32.343Z,992.90
2018-01-18T03:14:32.345Z,992.95
2018-01-18T03:15:32.321Z,992.95
2018-01-18T03:16:32.312Z,992.88
2018-01-18T03:17:32.297Z,992.82
2018-01-18T03:18:32.286Z,992.69
2018-01-18T03:19:32.277Z,992.65
2018-01-18T03:20:32.259Z,992.56
2018-01-18T03:21:32.248Z,992.50
2018-01-18T03:22:32.237Z,992.52
2018-01-18T03:23:32.228Z,992.48
2018-01-18T03:24:32.208Z,992.35
2018-01-18T03:25:32.209Z,992.29
2018-01-18T03:26:32.186Z,992.32
2018-01-18T03:27:32.180Z,992.19
2018-01-18T03:28:32.157Z,992.16
2018-01-18T03:29:32.145Z,992.13
2018-01-18T03:30:32.146Z,992.06
2018-01-18T03:31:32.132Z,991.99
2018-01-18T03:32:32.113Z,991.93
2018-01-18T03:33:32.100Z,991.91
2018-01-18T03:34:32.091Z,992.01
2018-01-18T03:35:32.075Z,991.93
2018-01-18T03:36:32.066Z,991.87
2018-01-18T03:37:32.054Z,991.77
2018-01-18T03:38:32.052Z,991.75
2018-01-18T03:39:32.032Z,991.61
2018-01-18T03:40:32.012Z,991.70
2018-01-18T03:41:32.006Z,991.63
2018-01-18T03:42:32.017Z,991.64
2018-01-18T03:43:31.980Z,991.71
2018-01-18T03:44:31.968Z,991.61
2018-01-18T03:45:31.962Z,991.56
2018-01-18T03:46:31.945Z,991.58
2018-01-18T03:47:31.950Z,991.49
2018-01-18T03:48:31.920Z,991.50
2018-01-18T03:49:31.907Z,991.35
2018-01-18T03:50:31.892Z,991.30
2018-01-18T03:51:31.903Z,991.27
2018-01-18T03:52:31.885Z,991.10
2018-01-18T03:53:31.859Z,991.15
2018-01-18T03:54:31.846Z,991.09
2018-01-18T03:55:31.836Z,991.20
2018-01-18T03:56:31.819Z,991.03
2018-01-18T03:57:31.811Z,991.00
2018-01-18T03:58:31.801Z,990.93
2018-01-18T03:59:31.792Z,990.89
2018-01-18T04:00:31.774Z,990.78
2018-01-18T04:01:31.764Z,990.78
2018-01-18T04:02:31.747Z,990.68
2018-01-18T04:03:31.744Z,990.61
2018-01-18T04:04:31.722Z,990.38
2018-01-18T04:05:31.715Z,990.49
2018-01-18T04:06:31.701Z,990.37
2018-01-18T04:07:31.693Z,990.35
2018-01-18T04:08:31.677Z,990.18
2018-01-18T04:09:31.665Z,990.22
2018-01-18T04:10:31.651Z,990.11
2018-01-18T04:11:31.644Z,990.12
2018-01-18T04:12:31.628Z,990.07
2018-01-18T04:13:31.612Z,989.98
2018-01-18T04:14:31.605Z,989.87
2018-01-18T04:15:31.595Z,989.80
2018-01-18T04:16:31.582Z,989.86
2018-01-18T04:17:31.620Z,989.76
2018-01-18T04:18:31.551Z,989.80
2018-01-18T04:19:31.543Z,989.79
2018-01-18T04:20:31.558Z,989.56
2018-01-18T04:21:31.517Z,989.66
2018-01-18T04:22:31.499Z,989.57
2018-01-18T04:23:31.495Z,989.51
2018-01-18T04:24:31.500Z,989.43
2018-01-18T04:25:31.472Z,989.24
2018-01-18T04:26:31.477Z,989.24
2018-01-18T04:27:31.446Z,989.14
2018-01-18T04:28:31.435Z,989.24
2018-01-18T04:29:31.417Z,989.18
2018-01-18T04:30:31.419Z,989.10
2018-01-18T04:31:31.407Z,988.99
2018-01-18T04:32:31.410Z,988.95
2018-01-18T04:33:31.370Z,988.85
2018-01-18T04:34:31.359Z,988.74
2018-01-18T04:35:31.347Z,988.65
2018-01-18T04:36:31.335Z,988.67
2018-01-18T04:37:31.319Z,988.41
2018-01-18T04:38:31.305Z,988.46
2018-01-18T04:39:31.322Z,988.35
2018-01-18T04:40:31.292Z,988.27
2018-01-18T04:41:31.301Z,988.19
2018-01-18T04:42:31.277Z,988.19
2018-01-18T04:43:31.259Z,988.12
2018-01-18T04:44:31.238Z,988.28
2018-01-18T04:45:31.226Z,988.13
2018-01-18T04:46:31.211Z,987.95
2018-01-18T04:47:31.203Z,987.77
2018-01-18T04:48:31.212Z,987.81
2018-01-18T04:49:31.174Z,987.79
2018-01-18T04:50:31.180Z,987.71
2018-01-18T04:51:31.149Z,987.64
2018-01-18T04:52:31.135Z,987.57
2018-01-18T04:53:31.135Z,987.55
2018-01-18T04:54:31.115Z,987.51
2018-01-18T04:55:31.101Z,987.38
2018-01-18T04:58:04.781Z,987.30
2018-01-18T04:59:04.266Z,987.17
2018-01-18T05:00:57.909Z,987.08
2018-01-18T05:01:57.858Z,987.36
2018-01-18T05:03:51.561Z,986.88
2018-01-18T05:04:51.585Z,987.00
2018-01-18T05:06:45.212Z,986.91
2018-01-18T05:07:45.104Z,986.82
2018-01-18T05:08:45.092Z,986.63
2018-01-18T05:09:45.075Z,986.62
2018-01-18T05:10:45.060Z,986.53
2018-01-18T05:11:45.052Z,986.52
2018-01-18T05:12:45.037Z,986.52
2018-01-18T05:13:45.025Z,986.45
2018-01-18T05:14:45.010Z,986.42
2018-01-18T05:15:44.999Z,986.41
2018-01-18T05:16:44.989Z,986.21
2018-01-18T05:17:44.994Z,986.24
2018-01-18T05:18:44.960Z,986.12
2018-01-18T05:19:44.950Z,986.12
2018-01-18T05:20:44.945Z,985.97
2018-01-18T05:21:44.921Z,985.91
2018-01-18T05:22:44.915Z,985.76
2018-01-18T05:23:44.902Z,985.79
2018-01-18T05:24:44.886Z,985.56
2018-01-18T05:25:44.875Z,985.50
2018-01-18T05:26:44.859Z,985.48
2018-01-18T05:27:44.854Z,985.53
2018-01-18T05:28:44.835Z,985.32
2018-01-18T05:29:44.825Z,985.32
2018-01-18T05:30:44.812Z,985.44
2018-01-18T05:31:44.794Z,985.40
2018-01-18T05:32:44.800Z,985.34
2018-01-18T05:33:44.781Z,985.25
2018-01-18T05:34:44.756Z,985.14
2018-01-18T05:35:44.749Z,985.18
2018-01-18T05:36:44.739Z,985.22
2018-01-18T05:37:44.729Z,985.32
2018-01-18T05:38:44.711Z,985.39
2018-01-18T05:39:44.707Z,985.06
2018-01-18T05:40:44.684Z,985.03
2018-01-18T05:41:44.672Z,984.90
2018-01-18T05:42:44.660Z,984.87
2018-01-18T05:43:44.646Z,984.78
2018-01-18T05:44:44.639Z,984.61
2018-01-18T05:45:44.621Z,984.57
2018-01-18T05:46:44.605Z,984.46
2018-01-18T05:47:44.598Z,984.45
2018-01-18T05:48:44.585Z,984.37
2018-01-18T05:49:44.630Z,984.42
2018-01-18T05:50:44.574Z,984.34
2018-01-18T05:51:44.547Z,984.16
2018-01-18T05:52:44.551Z,984.30
2018-01-18T05:53:44.521Z,984.64
2018-01-18T05:54:44.510Z,984.33
2018-01-18T05:55:44.514Z,984.30
2018-01-18T05:56:44.481Z,984.03
2018-01-18T05:57:44.486Z,983.94
2018-01-18T05:58:44.466Z,983.99
2018-01-18T05:59:44.444Z,983.75
2018-01-18T06:00:44.439Z,984.09
2018-01-18T06:01:44.417Z,983.75
2018-01-18T06:02:44.429Z,983.71
2018-01-18T06:03:44.391Z,983.62
2018-01-18T06:04:44.401Z,983.62
2018-01-18T06:05:44.370Z,983.57
2018-01-18T06:06:44.354Z,983.45
2018-01-18T06:07:44.359Z,983.67
2018-01-18T06:08:44.329Z,983.36
2018-01-18T06:09:44.348Z,983.13
2018-01-18T06:10:44.305Z,983.24
2018-01-18T06:11:44.288Z,983.16
2018-01-18T06:12:44.280Z,983.01
2018-01-18T06:13:44.281Z,982.91
2018-01-18T06:14:44.254Z,982.88
2018-01-18T06:15:44.237Z,982.75
2018-01-18T06:16:44.233Z,982.67
2018-01-18T06:17:44.217Z,982.71
2018-01-18T06:18:44.222Z,982.83
2018-01-18T06:19:44.191Z,982.69
2018-01-18T06:20:44.179Z,982.48
2018-01-18T06:21:44.168Z,982.65
2018-01-18T06:22:44.157Z,982.39
2018-01-18T06:23:44.140Z,982.34
2018-01-18T06:24:44.164Z,982.32
2018-01-18T06:25:44.176Z,982.32
2018-01-18T06:26:44.110Z,982.30
2018-01-18T06:27:44.090Z,982.13
2018-01-18T06:28:44.079Z,982.13
2018-01-18T06:29:44.071Z,982.11
2018-01-18T06:30:44.055Z,981.98
2018-01-18T06:31:44.045Z,982.03
2018-01-18T06:32:44.030Z,981.95
2018-01-18T06:33:44.016Z,981.92
2018-01-18T06:34:44.016Z,981.86
2018-01-18T06:35:44.481Z,981.95
2018-01-18T06:36:44.040Z,981.55
2018-01-18T06:37:43.974Z,981.59
2018-01-18T06:38:43.961Z,981.53
2018-01-18T06:39:43.946Z,981.50
2018-01-18T06:40:44.153Z,981.69
2018-01-18T06:41:43.918Z,981.67
2018-01-18T06:42:44.422Z,981.52
2018-01-18T06:43:43.906Z,981.53
2018-01-18T06:44:43.935Z,981.56
2018-01-18T06:45:43.881Z,981.51
2018-01-18T06:46:43.876Z,981.34
2018-01-18T06:47:43.946Z,981.37
2018-01-18T06:48:45.595Z,981.36
2018-01-18T06:49:43.956Z,981.31
2018-01-18T06:50:43.812Z,981.29
2018-01-18T06:51:43.798Z,981.24
2018-01-18T06:52:43.780Z,981.25
2018-01-18T06:53:43.796Z,981.23
2018-01-18T06:54:43.750Z,981.31
2018-01-18T06:55:43.742Z,981.14
2018-01-18T06:56:43.728Z,981.05
2018-01-18T06:57:43.717Z,981.00
2018-01-18T06:58:43.711Z,981.13
2018-01-18T06:59:43.687Z,981.02
2018-01-18T07:00:43.680Z,980.94
2018-01-18T07:01:43.669Z,980.54
2018-01-18T07:02:43.653Z,980.90
2018-01-18T07:03:43.641Z,980.71
2018-01-18T07:04:43.630Z,980.63
2018-01-18T07:05:43.620Z,980.77
2018-01-18T07:06:43.604Z,980.72
2018-01-18T07:07:43.594Z,980.61
2018-01-18T07:08:43.588Z,980.59
2018-01-18T07:09:43.566Z,980.47
2018-01-18T07:10:43.558Z,980.46
2018-01-18T07:11:43.556Z,980.41
2018-01-18T07:12:43.546Z,980.35
2018-01-18T07:13:43.520Z,980.37
2018-01-18T07:14:43.514Z,980.35
2018-01-18T07:15:44.440Z,980.21
2018-01-18T07:16:44.723Z,980.25
2018-01-18T07:17:45.348Z,980.00
2018-01-18T07:18:43.465Z,980.01
2018-01-18T07:19:43.447Z,979.86
2018-01-18T07:20:43.436Z,979.79
2018-01-18T07:21:43.426Z,979.72
2018-01-18T07:22:43.414Z,979.74
2018-01-18T07:23:43.399Z,979.72
2018-01-18T07:24:43.455Z,979.84
2018-01-18T07:25:43.376Z,979.66
2018-01-18T07:26:43.389Z,979.50
2018-01-18T07:27:43.350Z,979.52
2018-01-18T07:28:43.339Z,979.53
2018-01-18T07:29:43.345Z,979.56
2018-01-18T07:30:43.316Z,979.56
2018-01-18T07:31:43.312Z,979.40
2018-01-18T07:32:43.293Z,979.54
2018-01-18T07:33:43.278Z,979.52
2018-01-18T07:34:43.273Z,979.67
2018-01-18T07:35:43.254Z,979.49
2018-01-18T07:36:43.249Z,979.32
2018-01-18T07:37:43.232Z,979.44
2018-01-18T07:38:43.230Z,979.47
2018-01-18T07:39:43.210Z,979.46
2018-01-18T07:40:43.202Z,979.19
2018-01-18T07:41:43.187Z,979.03
2018-01-18T07:42:43.174Z,979.32
2018-01-18T07:43:43.169Z,979.22
2018-01-18T07:44:43.151Z,979.13
2018-01-18T07:45:43.154Z,978.97
2018-01-18T07:46:43.128Z,979.08
2018-01-18T07:47:43.121Z,979.06
2018-01-18T07:48:43.105Z,979.09
2018-01-18T07:49:43.096Z,978.91
2018-01-18T07:50:43.081Z,979.08
2018-01-18T07:51:43.075Z,979.05
2018-01-18T07:52:43.060Z,978.84
2018-01-18T07:53:43.052Z,979.02
2018-01-18T07:54:43.039Z,978.85
2018-01-18T07:55:43.026Z,978.82
2018-01-18T07:56:43.037Z,978.77
2018-01-18T07:57:43.023Z,978.75
2018-01-18T07:58:42.998Z,978.75
2018-01-18T07:59:42.979Z,978.65
2018-01-18T08:00:42.973Z,978.50
2018-01-18T08:01:42.961Z,978.86
2018-01-18T08:02:42.949Z,978.63
2018-01-18T08:03:42.938Z,978.70
2018-01-18T08:04:42.934Z,978.64
2018-01-18T08:05:42.918Z,978.63
2018-01-18T08:06:42.904Z,978.77
2018-01-18T08:07:42.891Z,978.59
2018-01-18T08:08:42.886Z,978.63
2018-01-18T08:09:42.869Z,978.49
2018-01-18T08:10:42.855Z,978.56
2018-01-18T08:11:42.849Z,978.51
2018-01-18T08:12:42.838Z,978.40
2018-01-18T08:13:42.822Z,978.25
2018-01-18T08:14:42.813Z,978.28
2018-01-18T08:15:42.809Z,978.29
2018-01-18T08:16:42.787Z,978.15
2018-01-18T08:17:42.816Z,978.17
2018-01-18T08:18:42.766Z,978.11
2018-01-18T08:19:42.760Z,977.99
2018-01-18T08:20:42.745Z,978.18
2018-01-18T08:21:42.737Z,978.15
2018-01-18T08:22:42.725Z,978.26
2018-01-18T08:23:42.716Z,978.08
2018-01-18T08:24:42.704Z,977.96
2018-01-18T08:25:42.692Z,977.92
2018-01-18T08:26:42.687Z,977.82
2018-01-18T08:27:42.670Z,977.77
2018-01-18T08:28:42.659Z,977.91
2018-01-18T08:29:42.652Z,978.22
2018-01-18T08:30:42.638Z,978.06
2018-01-18T08:31:42.632Z,978.13
2018-01-18T08:32:42.619Z,978.18
2018-01-18T08:33:42.606Z,978.09
2018-01-18T08:34:42.592Z,978.01
2018-01-18T08:35:42.585Z,977.85
2018-01-18T08:36:42.574Z,977.97
2018-01-18T08:37:42.566Z,977.85
2018-01-18T08:38:42.550Z,977.89
2018-01-18T08:39:42.545Z,977.71
2018-01-18T08:40:42.531Z,978.02
2018-01-18T08:41:42.524Z,977.94
2018-01-18T08:42:42.507Z,977.85
2018-01-18T08:43:42.498Z,977.62
2018-01-18T08:44:42.495Z,977.87
2018-01-18T08:45:42.481Z,977.71
2018-01-18T08:46:42.470Z,977.62
2018-01-18T08:47:42.461Z,977.69
2018-01-18T08:48:42.444Z,977.12
2018-01-18T08:49:42.543Z,977.49
2018-01-18T08:50:42.428Z,977.60
2018-01-18T08:51:42.414Z,977.57
2018-01-18T08:52:42.440Z,977.63
2018-01-18T08:53:42.413Z,977.60
2018-01-18T08:54:42.380Z,977.79
2018-01-18T08:55:42.374Z,977.84
2018-01-18T08:56:42.365Z,977.70
2018-01-18T08:57:42.352Z,977.62
2018-01-18T08:58:42.362Z,977.51
2018-01-18T08:59:42.333Z,977.58
2018-01-18T09:00:42.334Z,977.57
2018-01-18T09:01:42.325Z,977.52
2018-01-18T09:02:42.305Z,977.55
2018-01-18T09:03:42.316Z,977.50
2018-01-18T09:04:42.281Z,977.45
2018-01-18T09:05:42.276Z,977.34
2018-01-18T09:06:42.264Z,977.34
2018-01-18T09:07:42.259Z,977.28
2018-01-18T09:08:42.241Z,977.36
2018-01-18T09:09:42.233Z,977.49
2018-01-18T09:10:42.221Z,977.45
2018-01-18T09:11:42.206Z,977.42
2018-01-18T09:12:42.196Z,977.41
2018-01-18T09:13:42.197Z,977.36
2018-01-18T09:14:42.178Z,977.28
2018-01-18T09:15:42.169Z,977.16
2018-01-18T09:16:42.207Z,977.07
2018-01-18T09:17:42.150Z,977.10
2018-01-18T09:18:42.138Z,976.79
2018-01-18T09:19:42.131Z,977.27
2018-01-18T09:20:42.139Z,976.82
2018-01-18T09:21:42.126Z,976.98
2018-01-18T09:22:42.104Z,977.06
2018-01-18T09:23:42.087Z,976.98
2018-01-18T09:24:42.077Z,976.98
2018-01-18T09:25:42.089Z,976.91
2018-01-18T09:26:42.058Z,977.24
2018-01-18T09:27:42.092Z,976.95
2018-01-18T09:28:42.060Z,977.19
2018-01-18T09:29:42.024Z,977.14
2018-01-18T09:30:42.026Z,976.97
2018-01-18T09:31:42.010Z,976.66
2018-01-18T09:32:41.991Z,977.06
2018-01-18T09:33:41.985Z,977.08
2018-01-18T09:34:41.980Z,977.05
2018-01-18T09:35:41.991Z,977.09
2018-01-18T09:36:41.954Z,976.86
2018-01-18T09:37:41.947Z,977.08
2018-01-18T09:38:41.929Z,977.24
2018-01-18T09:39:41.926Z,976.87
2018-01-18T09:40:41.922Z,976.68
2018-01-18T09:41:41.902Z,976.37
2018-01-18T09:42:41.896Z,977.16
2018-01-18T09:43:41.888Z,977.22
2018-01-18T09:44:41.876Z,977.15
2018-01-18T09:45:41.869Z,977.00
2018-01-18T09:46:41.857Z,976.58
2018-01-18T09:47:41.840Z,977.31
2018-01-18T09:48:41.828Z,977.11
2018-01-18T09:49:41.828Z,977.44
2018-01-18T09:50:41.812Z,977.36
2018-01-18T09:51:41.806Z,977.64
2018-01-18T09:52:41.789Z,977.56
2018-01-18T09:53:41.780Z,977.29
2018-01-18T09:54:41.772Z,977.50
2018-01-18T09:55:41.762Z,977.37
2018-01-18T09:56:41.754Z,977.14
2018-01-18T09:57:41.752Z,977.48
2018-01-18T09:58:41.734Z,977.11
2018-01-18T09:59:41.732Z,977.23
2018-01-18T10:00:41.714Z,977.04
2018-01-18T10:01:41.711Z,977.30
2018-01-18T10:02:41.692Z,977.46
2018-01-18T10:03:41.696Z,976.90
2018-01-18T10:04:41.673Z,977.43
2018-01-18T10:05:41.668Z,977.21
2018-01-18T10:06:41.650Z,977.25
2018-01-18T10:07:41.646Z,977.38
2018-01-18T10:08:41.635Z,977.22
2018-01-18T10:09:41.653Z,977.20
2018-01-18T10:10:41.620Z,977.06
2018-01-18T10:11:41.608Z,976.81
2018-01-18T10:12:41.594Z,976.90
2018-01-18T10:13:41.581Z,976.69
2018-01-18T10:14:41.570Z,976.79
2018-01-18T10:15:41.564Z,977.06
2018-01-18T10:16:41.555Z,976.64
2018-01-18T10:17:41.545Z,976.72
2018-01-18T10:18:41.531Z,977.32
2018-01-18T10:19:41.520Z,977.33
2018-01-18T10:20:41.506Z,977.11
2018-01-18T10:21:41.499Z,976.91
2018-01-18T10:22:41.488Z,977.02
2018-01-18T10:23:41.480Z,977.07
2018-01-18T10:24:41.470Z,977.25
2018-01-18T10:25:41.465Z,976.88
2018-01-18T10:26:41.450Z,976.79
2018-01-18T10:27:41.442Z,976.96
2018-01-18T10:28:41.439Z,977.35
2018-01-18T10:29:41.417Z,976.99
2018-01-18T10:30:41.406Z,977.13
2018-01-18T10:31:41.395Z,977.16
2018-01-18T10:32:41.382Z,976.99
2018-01-18T10:33:41.374Z,976.84
2018-01-18T10:34:41.369Z,977.00
2018-01-18T10:35:41.351Z,976.52
2018-01-18T10:36:41.367Z,977.06
2018-01-18T10:37:41.339Z,977.14
2018-01-18T10:38:41.332Z,977.00
2018-01-18T10:39:41.311Z,977.00
2018-01-18T10:40:41.310Z,977.01
2018-01-18T10:41:41.292Z,977.41
2018-01-18T10:42:41.280Z,976.63
2018-01-18T10:43:41.271Z,976.90
2018-01-18T10:44:41.264Z,976.67
2018-01-18T10:45:41.252Z,976.95
2018-01-18T10:46:41.237Z,976.96
2018-01-18T10:47:41.229Z,977.09
2018-01-18T10:48:41.245Z,977.12
2018-01-18T10:49:41.239Z,977.19
2018-01-18T10:50:41.235Z,977.03
2018-01-18T10:51:41.187Z,977.32
2018-01-18T10:52:41.180Z,977.44
2018-01-18T10:53:41.162Z,977.28
2018-01-18T10:54:41.160Z,977.04
2018-01-18T10:55:41.159Z,977.20
2018-01-18T10:56:41.132Z,976.91
2018-01-18T10:57:41.123Z,977.33
2018-01-18T10:58:41.107Z,977.53
2018-01-18T10:59:41.099Z,977.46
2018-01-18T11:00:41.084Z,977.61
2018-01-18T11:01:41.083Z,977.62
2018-01-18T11:02:41.060Z,977.81
2018-01-18T11:03:41.053Z,977.66
2018-01-18T11:04:41.042Z,977.70
2018-01-18T11:05:41.039Z,977.67
2018-01-18T11:06:41.017Z,977.71
2018-01-18T11:07:41.006Z,978.15
2018-01-18T11:08:41.000Z,978.06
2018-01-18T11:09:40.992Z,977.66
2018-01-18T11:10:41.012Z,977.89
2018-01-18T11:11:40.963Z,978.29
2018-01-18T11:12:40.975Z,978.26
2018-01-18T11:13:40.943Z,978.06
2018-01-18T11:14:40.931Z,978.49
2018-01-18T11:15:40.918Z,978.64
2018-01-18T11:16:40.910Z,978.21
2018-01-18T11:17:40.982Z,978.50
2018-01-18T11:18:40.881Z,978.96
2018-01-18T11:19:40.878Z,978.55
2018-01-18T11:20:40.864Z,978.86
2018-01-18T11:21:40.855Z,979.17
2018-01-18T11:22:40.840Z,978.95
2018-01-18T11:23:40.865Z,978.89
2018-01-18T11:24:40.849Z,979.18
2018-01-18T11:25:40.823Z,979.04
2018-01-18T11:26:40.803Z,979.24
2018-01-18T11:27:40.793Z,978.67
2018-01-18T11:28:40.774Z,979.08
2018-01-18T11:29:40.763Z,978.93
2018-01-18T11:30:40.756Z,979.65
2018-01-18T11:31:40.741Z,979.59
2018-01-18T11:32:40.730Z,979.95
2018-01-18T11:33:40.715Z,979.86
2018-01-18T11:34:40.708Z,978.93
2018-01-18T11:35:40.696Z,979.86
2018-01-18T11:36:40.685Z,979.91
2018-01-18T11:37:40.679Z,980.21
2018-01-18T11:38:40.682Z,979.96
2018-01-18T11:39:40.671Z,979.97
2018-01-18T11:40:40.647Z,980.50
2018-01-18T11:41:40.636Z,980.87
2018-01-18T11:42:40.617Z,980.31
2018-01-18T11:43:40.608Z,980.69
2018-01-18T11:44:40.612Z,980.47
2018-01-18T11:45:40.617Z,980.98
2018-01-18T11:46:40.622Z,981.03
2018-01-18T11:47:40.582Z,981.20
2018-01-18T11:48:40.553Z,980.86
2018-01-18T11:49:40.537Z,981.06
2018-01-18T11:50:40.526Z,981.06
2018-01-18T11:51:40.510Z,981.42
2018-01-18T11:52:40.512Z,981.32
2018-01-18T11:53:40.494Z,981.45
2018-01-18T11:54:40.482Z,981.82
2018-01-18T11:55:40.470Z,981.35
2018-01-18T11:56:40.513Z,981.58
2018-01-18T11:57:40.444Z,982.25
2018-01-18T11:58:40.436Z,981.86
2018-01-18T11:59:40.427Z,981.88
2018-01-18T12:00:40.414Z,981.95
2018-01-18T12:01:40.402Z,981.66
2018-01-18T12:02:40.391Z,982.47
2018-01-18T12:03:40.380Z,981.73
2018-01-18T12:04:40.378Z,981.58
2018-01-18T12:05:40.383Z,982.58
2018-01-18T12:06:40.347Z,982.52
2018-01-18T12:07:40.334Z,981.93
2018-01-18T12:08:40.334Z,982.75
2018-01-18T12:09:40.315Z,983.15
2018-01-18T12:10:40.307Z,982.54
2018-01-18T12:11:40.290Z,981.75
2018-01-18T12:12:40.278Z,982.83
2018-01-18T12:13:40.270Z,982.90
2018-01-18T12:14:40.258Z,982.78
2018-01-18T12:15:40.250Z,983.37
2018-01-18T12:16:40.236Z,983.22
2018-01-18T12:17:40.227Z,982.76
2018-01-18T12:18:40.209Z,983.66
2018-01-18T12:19:40.223Z,983.39
2018-01-18T12:20:40.192Z,983.50
2018-01-18T12:21:40.191Z,984.01
2018-01-18T12:22:40.171Z,983.95
2018-01-18T12:23:40.155Z,984.02
2018-01-18T12:24:40.145Z,984.39
2018-01-18T12:25:40.143Z,984.36
2018-01-18T12:26:40.137Z,984.20
2018-01-18T12:27:40.125Z,984.22
2018-01-18T12:28:40.119Z,984.42
2018-01-18T12:29:40.093Z,984.17
2018-01-18T12:30:40.079Z,984.45
2018-01-18T12:31:40.069Z,984.54
2018-01-18T12:32:40.059Z,984.54